createdAt,value
2023-04-08T00:02:11.706Z,65.46
2023-04-08T00:04:38.198Z,64.92
2023-04-08T00:07:04.779Z,64.98
2023-04-08T00:09:31.230Z,64.80
2023-04-08T00:11:57.844Z,65.52
2023-04-08T00:14:24.261Z,65.58
2023-04-08T00:16:50.722Z,65.90
2023-04-08T00:19:17.164Z,66.26
2023-04-08T00:21:43.538Z,66.69
2023-04-08T00:24:12.431Z,65.96
2023-04-08T00:26:38.770Z,65.76
2023-04-08T00:29:05.304Z,65.47
2023-04-08T00:31:31.773Z,65.50
2023-04-08T00:33:58.218Z,64.99
2023-04-08T00:36:24.550Z,65.88
2023-04-08T00:38:51.037Z,66.24
2023-04-08T00:41:17.608Z,66.96
2023-04-08T00:43:44.014Z,67.03
2023-04-08T00:46:10.779Z,66.14
2023-04-08T00:48:37.140Z,65.72
2023-04-08T00:51:03.785Z,65.46
2023-04-08T00:53:31.053Z,65.39
2023-04-08T00:55:57.953Z,65.03
2023-04-08T00:58:24.285Z,64.95
2023-04-08T01:01:03.277Z,64.91
2023-04-08T01:03:42.334Z,65.19
2023-04-08T01:06:42.318Z,65.74
2023-04-08T01:09:11.519Z,65.61
2023-04-08T01:11:43.378Z,65.35
2023-04-08T01:14:16.078Z,65.12
2023-04-08T01:16:43.964Z,65.27
2023-04-08T01:19:27.321Z,64.85
2023-04-08T01:22:01.500Z,64.97
2023-04-08T01:24:31.017Z,64.90
2023-04-08T01:26:59.252Z,64.97
2023-04-08T01:29:26.293Z,65.11
2023-04-08T01:31:54.910Z,65.03
2023-04-08T01:34:22.153Z,65.12
2023-04-08T01:36:50.105Z,65.37
2023-04-08T01:39:18.924Z,65.58
2023-04-08T01:41:46.525Z,65.71
2023-04-08T01:44:15.526Z,66.66
2023-04-08T01:46:43.153Z,66.77
2023-04-08T01:49:09.935Z,66.36
2023-04-08T01:51:39.285Z,66.44
2023-04-08T01:54:05.916Z,66.78
2023-04-08T01:56:37.654Z,66.67
2023-04-08T01:59:09.581Z,66.85
2023-04-08T02:01:36.930Z,66.68
2023-04-08T02:04:04.167Z,67.10
2023-04-08T02:06:31.887Z,67.77
2023-04-08T02:08:59.555Z,67.70
2023-04-08T02:11:26.038Z,68.88
2023-04-08T02:13:53.287Z,70.51
2023-04-08T02:16:27.269Z,70.69
2023-04-08T02:19:02.556Z,71.05
2023-04-08T02:21:36.928Z,71.33
2023-04-08T02:24:05.478Z,71.31
2023-04-08T02:26:33.890Z,71.96
2023-04-08T02:29:02.803Z,71.94
2023-04-08T02:31:29.880Z,70.87
2023-04-08T02:33:57.909Z,70.00
2023-04-08T02:36:25.892Z,69.04
2023-04-08T02:38:52.525Z,68.55
2023-04-08T02:41:19.079Z,67.87
2023-04-08T02:43:47.774Z,68.16
2023-04-08T02:46:14.500Z,67.23
2023-04-08T02:48:40.927Z,67.11
2023-04-08T02:51:07.286Z,67.57
2023-04-08T02:53:33.660Z,67.84
2023-04-08T02:56:00.385Z,68.20
2023-04-08T02:58:26.732Z,68.42
2023-04-08T03:00:53.183Z,68.41
2023-04-08T03:03:19.696Z,68.59
2023-04-08T03:05:46.211Z,69.17
2023-04-08T03:08:12.589Z,68.71
2023-04-08T03:10:38.935Z,69.79
2023-04-08T03:13:05.392Z,70.51
2023-04-08T03:15:31.837Z,69.98
2023-04-08T03:17:58.253Z,69.48
2023-04-08T03:20:26.547Z,69.40
2023-04-08T03:22:52.943Z,69.04
2023-04-08T03:25:19.270Z,69.19
2023-04-08T03:27:45.656Z,68.50
2023-04-08T03:30:12.223Z,68.56
2023-04-08T03:32:38.858Z,68.52
2023-04-08T03:35:06.304Z,68.26
2023-04-08T03:37:32.660Z,68.50
2023-04-08T03:39:59.027Z,67.90
2023-04-08T03:42:25.398Z,67.51
2023-04-08T03:44:51.745Z,67.42
2023-04-08T03:47:18.156Z,67.02
2023-04-08T03:49:44.503Z,67.04
2023-04-08T03:52:10.999Z,66.92
2023-04-08T03:54:37.378Z,66.41
2023-04-08T03:57:03.852Z,66.14
2023-04-08T03:59:30.232Z,66.07
2023-04-08T04:01:56.688Z,66.23
2023-04-08T04:04:23.777Z,66.22
2023-04-08T04:06:50.256Z,66.08
2023-04-08T04:09:16.846Z,66.37
2023-04-08T04:11:43.204Z,67.38
2023-04-08T04:14:09.523Z,66.67
2023-04-08T04:16:36.062Z,66.57
2023-04-08T04:19:02.442Z,66.73
2023-04-08T04:21:28.795Z,67.39
2023-04-08T04:23:55.135Z,67.55
2023-04-08T04:26:21.680Z,67.45
2023-04-08T04:28:48.383Z,67.30
2023-04-08T04:31:22.883Z,67.44
2023-04-08T04:33:49.448Z,67.60
2023-04-08T04:36:16.134Z,67.65
2023-04-08T04:38:45.564Z,67.50
2023-04-08T04:41:12.316Z,67.17
2023-04-08T04:43:38.641Z,67.82
2023-04-08T04:46:07.151Z,68.71
2023-04-08T04:48:33.807Z,68.98
2023-04-08T04:51:03.021Z,69.08
2023-04-08T04:53:30.580Z,69.02
2023-04-08T04:55:56.918Z,69.77
2023-04-08T04:58:23.241Z,70.00
2023-04-08T05:00:49.601Z,70.00
2023-04-08T05:03:16.525Z,69.14
2023-04-08T05:05:43.037Z,69.01
2023-04-08T05:08:09.402Z,68.91
2023-04-08T05:10:35.742Z,68.55
2023-04-08T05:13:02.073Z,68.35
2023-04-08T05:15:28.456Z,67.96
2023-04-08T05:17:55.021Z,68.13
2023-04-08T05:20:21.374Z,68.00
2023-04-08T05:22:47.711Z,67.71
2023-04-08T05:25:14.189Z,67.80
2023-04-08T05:27:40.597Z,67.35
2023-04-08T05:30:08.585Z,67.22
2023-04-08T05:32:35.032Z,67.29
2023-04-08T05:35:05.349Z,67.17
2023-04-08T05:37:31.673Z,67.36
2023-04-08T05:39:58.018Z,67.77
2023-04-08T05:42:24.345Z,67.70
2023-04-08T05:44:50.741Z,67.34
2023-04-08T05:47:17.083Z,67.32
2023-04-08T05:49:43.403Z,67.66
2023-04-08T05:52:09.742Z,68.21
2023-04-08T05:54:36.063Z,68.25
2023-04-08T05:57:02.547Z,68.20
2023-04-08T05:59:28.866Z,68.23
2023-04-08T06:01:55.378Z,68.14
2023-04-08T06:04:21.998Z,68.61
2023-04-08T06:06:48.392Z,68.42
2023-04-08T06:09:14.818Z,68.48
2023-04-08T06:11:41.142Z,69.03
2023-04-08T06:14:07.458Z,69.12
2023-04-08T06:16:33.920Z,69.11
2023-04-08T06:19:00.281Z,68.84
2023-04-08T06:21:26.621Z,69.21
2023-04-08T06:23:52.938Z,69.91
2023-04-08T06:26:19.354Z,69.63
2023-04-08T06:28:45.682Z,70.68
2023-04-08T06:31:12.046Z,72.96
2023-04-08T06:33:38.437Z,72.65
2023-04-08T06:36:06.698Z,72.78
2023-04-08T06:38:33.800Z,72.67
2023-04-08T06:41:04.478Z,72.65
2023-04-08T06:43:31.159Z,73.02
2023-04-08T06:45:57.976Z,72.73
2023-04-08T06:48:28.628Z,72.78
2023-04-08T06:50:59.569Z,73.01
2023-04-08T06:53:26.901Z,73.42
2023-04-08T06:55:53.420Z,73.84
2023-04-08T06:58:19.748Z,74.62
2023-04-08T07:00:47.039Z,74.10
2023-04-08T07:03:13.617Z,73.48
2023-04-08T07:05:41.983Z,72.35
2023-04-08T07:08:08.867Z,71.45
2023-04-08T07:10:35.723Z,70.54
2023-04-08T07:13:02.324Z,70.05
2023-04-08T07:15:28.642Z,69.48
2023-04-08T07:17:58.633Z,69.41
2023-04-08T07:20:25.930Z,68.77
2023-04-08T07:22:52.338Z,68.92
2023-04-08T07:25:18.657Z,69.32
2023-04-08T07:27:45.001Z,68.58
2023-04-08T07:30:11.830Z,68.84
2023-04-08T07:32:38.272Z,70.47
2023-04-08T07:35:05.059Z,70.70
2023-04-08T07:37:31.428Z,70.09
2023-04-08T07:39:57.884Z,69.44
2023-04-08T07:42:24.282Z,68.66
2023-04-08T07:44:50.916Z,68.45
2023-04-08T07:47:17.881Z,67.92
2023-04-08T07:49:46.857Z,67.73
2023-04-08T07:52:13.237Z,67.01
2023-04-08T07:54:39.609Z,67.22
2023-04-08T07:57:06.129Z,66.50
2023-04-08T07:59:32.539Z,66.79
2023-04-08T08:01:59.134Z,66.83
2023-04-08T08:04:26.217Z,66.59
2023-04-08T08:06:52.780Z,66.03
2023-04-08T08:09:19.347Z,65.72
2023-04-08T08:11:45.714Z,65.63
2023-04-08T08:14:13.763Z,65.39
2023-04-08T08:16:40.226Z,65.54
2023-04-08T08:19:08.637Z,65.71
2023-04-08T08:21:38.179Z,65.67
2023-04-08T08:24:04.661Z,66.13
2023-04-08T08:26:31.157Z,65.87
2023-04-08T08:28:57.597Z,65.96
2023-04-08T08:31:23.942Z,65.37
2023-04-08T08:33:50.480Z,65.00
2023-04-08T08:36:17.795Z,64.91
2023-04-08T08:38:44.509Z,64.46
2023-04-08T08:41:10.836Z,64.09
2023-04-08T08:43:38.295Z,64.91
2023-04-08T08:46:04.680Z,66.21
2023-04-08T08:48:32.503Z,66.07
2023-04-08T08:50:58.826Z,65.29
2023-04-08T08:53:30.513Z,66.03
2023-04-08T08:56:13.429Z,65.17
2023-04-08T08:58:42.707Z,64.20
2023-04-08T09:01:35.601Z,63.85
2023-04-08T09:04:22.664Z,63.57
2023-04-08T09:07:04.406Z,62.72
2023-04-08T09:09:48.426Z,64.63
2023-04-08T09:12:16.500Z,64.64
2023-04-08T09:14:44.274Z,64.65
2023-04-08T09:17:10.966Z,64.16
2023-04-08T09:19:37.395Z,63.90
2023-04-08T09:22:08.798Z,63.73
2023-04-08T09:24:36.880Z,64.08
2023-04-08T09:27:04.696Z,63.39
2023-04-08T09:29:34.620Z,62.58
2023-04-08T09:32:02.325Z,61.70
2023-04-08T09:34:30.773Z,61.93
2023-04-08T09:36:57.165Z,61.19
2023-04-08T09:39:24.106Z,60.17
2023-04-08T09:41:51.877Z,59.91
2023-04-08T09:44:20.820Z,59.75
2023-04-08T09:46:50.504Z,58.71
2023-04-08T09:49:26.720Z,58.55
2023-04-08T09:52:06.712Z,58.52
2023-04-08T09:54:52.322Z,59.53
2023-04-08T09:57:42.408Z,59.68
2023-04-08T10:00:12.888Z,60.10
2023-04-08T10:02:45.881Z,56.63
2023-04-08T10:05:14.464Z,55.78
2023-04-08T10:07:41.705Z,55.97
2023-04-08T10:10:10.923Z,55.51
2023-04-08T10:12:37.869Z,55.68
2023-04-08T10:15:30.386Z,55.82
2023-04-08T10:18:20.210Z,55.62
2023-04-08T10:20:47.837Z,55.80
2023-04-08T10:23:16.051Z,55.99
2023-04-08T10:25:49.387Z,55.88
2023-04-08T10:28:17.764Z,55.60
2023-04-08T10:30:52.012Z,55.37
2023-04-08T10:33:22.854Z,54.63
2023-04-08T10:35:53.278Z,54.49
2023-04-08T10:38:20.797Z,54.40
2023-04-08T10:40:49.199Z,54.51
2023-04-08T10:43:15.956Z,55.21
2023-04-08T10:45:44.347Z,54.70
2023-04-08T10:48:24.427Z,54.27
2023-04-08T10:50:55.544Z,53.62
2023-04-08T10:53:35.877Z,53.44
2023-04-08T10:56:14.931Z,53.89
2023-04-08T10:58:52.318Z,53.20
2023-04-08T11:01:19.731Z,52.48
2023-04-08T11:03:46.372Z,53.37
2023-04-08T11:06:12.885Z,53.91
2023-04-08T11:08:39.290Z,54.49
2023-04-08T11:11:10.724Z,54.39
2023-04-08T11:13:51.215Z,53.29
2023-04-08T11:16:21.160Z,53.00
2023-04-08T11:18:47.799Z,52.79
2023-04-08T11:21:15.159Z,53.15
2023-04-08T11:23:42.340Z,53.38
2023-04-08T11:26:08.850Z,54.15
2023-04-08T11:28:35.548Z,54.67
2023-04-08T11:31:04.294Z,55.10
2023-04-08T11:33:31.829Z,54.55
2023-04-08T11:36:01.029Z,54.74
2023-04-08T11:38:27.389Z,54.75
2023-04-08T11:41:00.917Z,55.10
2023-04-08T11:43:27.399Z,54.98
2023-04-08T11:45:53.772Z,55.90
2023-04-08T11:48:20.234Z,57.30
2023-04-08T11:50:46.965Z,57.86
2023-04-08T11:53:25.622Z,57.94
2023-04-08T11:55:52.386Z,58.52
2023-04-08T11:58:18.728Z,59.47
2023-04-08T12:00:45.707Z,59.33
2023-04-08T12:03:13.262Z,59.83
2023-04-08T12:05:39.792Z,59.86
2023-04-08T12:08:06.511Z,61.52
2023-04-08T12:10:32.860Z,60.79
2023-04-08T12:12:59.197Z,60.07
2023-04-08T12:15:25.971Z,59.67
2023-04-08T12:17:52.409Z,59.31
2023-04-08T12:20:18.803Z,58.94
2023-04-08T12:22:45.381Z,58.45
2023-04-08T12:25:11.729Z,58.16
2023-04-08T12:27:38.088Z,57.89
2023-04-08T12:30:04.814Z,57.35
2023-04-08T12:32:31.691Z,57.23
2023-04-08T12:34:58.072Z,56.51
2023-04-08T12:37:24.411Z,55.85
2023-04-08T12:39:50.796Z,55.17
2023-04-08T12:42:17.109Z,54.52
2023-04-08T12:44:43.459Z,53.92
2023-04-08T12:47:09.953Z,54.10
2023-04-08T12:49:48.635Z,54.95
2023-04-08T12:52:16.102Z,56.70
2023-04-08T12:54:42.471Z,57.40
2023-04-08T12:57:08.848Z,56.43
2023-04-08T12:59:35.336Z,55.62
2023-04-08T13:02:01.763Z,55.47
2023-04-08T13:04:28.114Z,54.32
2023-04-08T13:06:55.469Z,53.86
2023-04-08T13:09:22.268Z,52.97
2023-04-08T13:11:48.776Z,53.45
2023-04-08T13:14:15.108Z,53.87
2023-04-08T13:16:41.481Z,53.97
2023-04-08T13:19:07.825Z,53.58
2023-04-08T13:21:34.151Z,54.09
2023-04-08T13:24:00.609Z,54.43
2023-04-08T13:26:27.298Z,54.39
2023-04-08T13:28:57.240Z,54.39
2023-04-08T13:31:24.040Z,53.70
2023-04-08T13:33:50.485Z,53.37
2023-04-08T13:36:16.951Z,53.14
2023-04-08T13:38:43.587Z,53.95
2023-04-08T13:41:09.968Z,53.87
2023-04-08T13:43:36.620Z,53.86
2023-04-08T13:46:03.198Z,53.57
2023-04-08T13:48:29.587Z,53.23
2023-04-08T13:50:55.911Z,52.69
2023-04-08T13:53:22.298Z,51.60
2023-04-08T13:55:48.641Z,50.84
2023-04-08T13:58:23.407Z,51.22
2023-04-08T14:00:51.525Z,51.18
2023-04-08T14:03:18.319Z,51.61
2023-04-08T14:05:45.263Z,51.59
2023-04-08T14:08:13.279Z,51.64
2023-04-08T14:10:39.677Z,52.04
2023-04-08T14:13:06.014Z,52.64
2023-04-08T14:15:32.376Z,52.84
2023-04-08T14:17:58.763Z,53.22
2023-04-08T14:20:25.405Z,53.22
2023-04-08T14:22:51.783Z,52.89
2023-04-08T14:25:18.975Z,53.08
2023-04-08T14:27:57.304Z,52.66
2023-04-08T14:30:25.639Z,53.12
2023-04-08T14:32:52.072Z,53.18
2023-04-08T14:35:18.806Z,52.45
2023-04-08T14:37:45.295Z,53.02
2023-04-08T14:40:11.970Z,52.47
2023-04-08T14:42:38.428Z,52.13
2023-04-08T14:45:05.159Z,52.38
2023-04-08T14:47:31.505Z,53.10
2023-04-08T14:49:57.837Z,52.37
2023-04-08T14:52:24.803Z,52.45
2023-04-08T14:54:52.363Z,52.32
2023-04-08T14:57:18.739Z,52.80
2023-04-08T14:59:45.125Z,52.73
2023-04-08T15:02:12.460Z,52.81
2023-04-08T15:04:39.066Z,52.89
2023-04-08T15:07:06.118Z,52.40
2023-04-08T15:09:32.447Z,51.64
2023-04-08T15:11:59.048Z,52.08
2023-04-08T15:14:25.807Z,51.83
2023-04-08T15:16:52.188Z,51.93
2023-04-08T15:19:20.109Z,51.65
2023-04-08T15:21:46.459Z,51.93
2023-04-08T15:24:12.920Z,51.78
2023-04-08T15:26:39.287Z,52.42
2023-04-08T15:29:05.643Z,53.05
2023-04-08T15:31:32.508Z,52.28
2023-04-08T15:33:58.892Z,52.43
2023-04-08T15:36:25.217Z,52.21
2023-04-08T15:38:52.486Z,52.24
2023-04-08T15:41:19.894Z,51.90
2023-04-08T15:43:46.275Z,52.13
2023-04-08T15:46:20.826Z,52.85
2023-04-08T15:48:48.268Z,52.65
2023-04-08T15:51:15.521Z,52.24
2023-04-08T15:53:42.733Z,52.34
2023-04-08T15:56:14.269Z,52.63
2023-04-08T15:58:40.746Z,52.56
2023-04-08T16:01:07.127Z,52.21
2023-04-08T16:03:33.869Z,52.44
2023-04-08T16:06:00.535Z,52.59
2023-04-08T16:08:27.069Z,53.18
2023-04-08T16:11:01.154Z,53.17
2023-04-08T16:13:28.919Z,52.78
2023-04-08T16:15:55.870Z,52.74
2023-04-08T16:18:22.232Z,53.32
2023-04-08T16:20:49.945Z,53.59
2023-04-08T16:23:17.733Z,54.15
2023-04-08T16:25:44.794Z,55.32
2023-04-08T16:28:11.385Z,55.16
2023-04-08T16:30:37.833Z,55.20
2023-04-08T16:33:05.021Z,54.50
2023-04-08T16:35:31.546Z,54.25
2023-04-08T16:37:58.443Z,53.93
2023-04-08T16:40:24.928Z,53.42
2023-04-08T16:42:51.269Z,52.91
2023-04-08T16:45:17.632Z,52.97
2023-04-08T16:47:44.380Z,53.03
2023-04-08T16:50:11.536Z,52.53
2023-04-08T16:52:37.925Z,52.42
2023-04-08T16:55:04.458Z,52.42
2023-04-08T16:57:30.901Z,51.91
2023-04-08T16:59:57.321Z,51.64
2023-04-08T17:02:23.828Z,51.66
2023-04-08T17:04:50.856Z,51.50
2023-04-08T17:07:17.592Z,51.69
2023-04-08T17:09:44.344Z,50.67
2023-04-08T17:12:10.868Z,51.22
2023-04-08T17:14:37.219Z,51.52
2023-04-08T17:17:03.573Z,50.91
2023-04-08T17:19:29.900Z,50.53
2023-04-08T17:21:56.473Z,50.31
2023-04-08T17:24:23.004Z,50.49
2023-04-08T17:26:49.361Z,50.28
2023-04-08T17:29:15.722Z,50.20
2023-04-08T17:31:42.134Z,51.23
2023-04-08T17:34:08.480Z,51.41
2023-04-08T17:36:34.856Z,51.43
2023-04-08T17:39:01.242Z,51.92
2023-04-08T17:41:39.064Z,52.71
2023-04-08T17:44:06.670Z,53.24
2023-04-08T17:46:33.504Z,52.85
2023-04-08T17:48:59.852Z,52.85
2023-04-08T17:51:26.307Z,52.56
2023-04-08T17:53:53.069Z,52.17
2023-04-08T17:56:19.610Z,52.12
2023-04-08T17:58:48.071Z,52.00
2023-04-08T18:01:15.516Z,53.14
2023-04-08T18:03:42.273Z,52.96
2023-04-08T18:06:09.170Z,52.70
2023-04-08T18:08:35.671Z,53.32
2023-04-08T18:11:05.825Z,54.11
2023-04-08T18:13:32.610Z,53.69
2023-04-08T18:15:59.089Z,54.27
2023-04-08T18:18:25.535Z,54.37
2023-04-08T18:20:51.955Z,54.70
2023-04-08T18:23:18.314Z,54.11
2023-04-08T18:25:49.957Z,54.47
2023-04-08T18:28:16.373Z,54.62
2023-04-08T18:30:43.232Z,54.84
2023-04-08T18:33:09.719Z,55.29
2023-04-08T18:35:36.746Z,55.01
2023-04-08T18:38:03.098Z,55.63
2023-04-08T18:40:29.619Z,55.98
2023-04-08T18:42:56.166Z,56.38
2023-04-08T18:45:22.636Z,56.80
2023-04-08T18:47:49.066Z,56.86
2023-04-08T18:50:15.928Z,56.54
2023-04-08T18:52:42.730Z,56.35
2023-04-08T18:55:09.172Z,56.41
2023-04-08T18:57:35.733Z,55.65
2023-04-08T19:00:02.122Z,56.23
2023-04-08T19:02:28.614Z,56.11
2023-04-08T19:04:55.812Z,56.24
2023-04-08T19:07:23.167Z,56.63
2023-04-08T19:09:49.514Z,56.39
2023-04-08T19:12:16.022Z,56.55
2023-04-08T19:14:42.454Z,56.24
2023-04-08T19:17:09.650Z,56.18
2023-04-08T19:19:36.055Z,56.00
2023-04-08T19:22:05.444Z,56.20
2023-04-08T19:24:32.830Z,56.82
2023-04-08T19:26:59.674Z,55.95
2023-04-08T19:29:29.552Z,56.74
2023-04-08T19:31:57.312Z,57.58
2023-04-08T19:34:23.734Z,57.32
2023-04-08T19:36:50.196Z,57.98
2023-04-08T19:39:16.853Z,57.87
2023-04-08T19:41:43.231Z,59.38
2023-04-08T19:44:09.607Z,60.13
2023-04-08T19:46:35.959Z,60.68
2023-04-08T19:49:02.456Z,60.23
2023-04-08T19:51:29.175Z,60.36
2023-04-08T19:53:56.049Z,59.77
2023-04-08T19:56:22.519Z,59.38
2023-04-08T19:58:49.330Z,58.93
2023-04-08T20:01:15.826Z,59.03
2023-04-08T20:03:43.215Z,58.64
2023-04-08T20:06:09.709Z,58.27
2023-04-08T20:08:36.203Z,58.51
2023-04-08T20:11:04.467Z,58.66
2023-04-08T20:13:31.067Z,58.38
2023-04-08T20:15:57.956Z,58.19
2023-04-08T20:18:24.385Z,58.45
2023-04-08T20:20:50.881Z,58.87
2023-04-08T20:23:17.347Z,58.92
2023-04-08T20:25:43.703Z,59.08
2023-04-08T20:28:10.135Z,59.39
2023-04-08T20:30:36.491Z,59.88
2023-04-08T20:33:02.925Z,60.18
2023-04-08T20:35:29.524Z,60.47
2023-04-08T20:37:56.005Z,60.58
2023-04-08T20:40:22.362Z,61.20
2023-04-08T20:42:48.684Z,61.08
2023-04-08T20:45:15.399Z,61.74
2023-04-08T20:47:42.048Z,62.87
2023-04-08T20:50:08.998Z,62.18
2023-04-08T20:52:35.364Z,61.93
2023-04-08T20:55:01.690Z,62.04
2023-04-08T20:57:28.060Z,62.92
2023-04-08T20:59:54.418Z,62.67
2023-04-08T21:02:21.597Z,62.68
2023-04-08T21:04:48.665Z,62.66
2023-04-08T21:07:15.215Z,62.50
2023-04-08T21:09:41.584Z,62.78
2023-04-08T21:12:08.133Z,62.92
2023-04-08T21:14:34.739Z,62.77
2023-04-08T21:17:01.062Z,62.58
2023-04-08T21:19:27.445Z,62.30
2023-04-08T21:21:53.800Z,63.13
2023-04-08T21:24:20.336Z,63.13
2023-04-08T21:26:46.848Z,62.64
2023-04-08T21:29:13.228Z,62.72
2023-04-08T21:31:40.948Z,62.63
2023-04-08T21:34:07.633Z,62.66
2023-04-08T21:36:34.064Z,62.19
2023-04-08T21:39:00.523Z,62.75
2023-04-08T21:41:28.415Z,61.97
2023-04-08T21:43:57.013Z,61.76
2023-04-08T21:46:23.550Z,61.49
2023-04-08T21:48:50.213Z,61.29
2023-04-08T21:51:17.172Z,61.35
2023-04-08T21:53:44.546Z,61.67
2023-04-08T21:56:11.471Z,62.18
2023-04-08T21:58:37.838Z,62.18
2023-04-08T22:01:04.343Z,62.19
2023-04-08T22:03:30.865Z,62.41
2023-04-08T22:05:57.293Z,62.65
2023-04-08T22:08:23.642Z,63.38
2023-04-08T22:10:50.068Z,64.23
2023-04-08T22:13:18.676Z,64.46
2023-04-08T22:15:46.588Z,64.82
2023-04-08T22:18:12.938Z,64.15
2023-04-08T22:20:39.277Z,64.23
2023-04-08T22:23:05.611Z,64.47
2023-04-08T22:25:31.970Z,64.43
2023-04-08T22:27:58.294Z,65.07
2023-04-08T22:30:24.653Z,65.54
2023-04-08T22:32:51.075Z,65.94
2023-04-08T22:35:17.453Z,65.60
2023-04-08T22:37:43.849Z,65.20
2023-04-08T22:40:10.738Z,64.29
2023-04-08T22:42:37.104Z,65.03
2023-04-08T22:45:04.974Z,65.08
2023-04-08T22:47:31.484Z,64.98
2023-04-08T22:49:57.952Z,65.12
2023-04-08T22:52:24.333Z,65.25
2023-04-08T22:54:50.681Z,65.28
2023-04-08T22:57:17.013Z,64.95
2023-04-08T22:59:43.345Z,65.34
2023-04-08T23:02:09.839Z,65.18
2023-04-08T23:04:36.233Z,65.42
2023-04-08T23:07:02.602Z,65.75
2023-04-08T23:09:29.015Z,65.68
2023-04-08T23:11:55.844Z,65.45
2023-04-08T23:14:22.220Z,64.56
2023-04-08T23:16:48.622Z,64.87
2023-04-08T23:19:14.967Z,65.57
2023-04-08T23:21:41.357Z,65.60
2023-04-08T23:24:08.028Z,65.68
2023-04-08T23:26:34.466Z,66.12
2023-04-08T23:29:00.862Z,65.70
2023-04-08T23:31:27.240Z,65.06
2023-04-08T23:33:53.624Z,65.21
2023-04-08T23:36:20.002Z,65.42
2023-04-08T23:38:46.445Z,66.08
2023-04-08T23:41:12.795Z,65.88
2023-04-08T23:43:39.197Z,66.64
2023-04-08T23:46:05.610Z,67.62
2023-04-08T23:48:32.065Z,66.90
2023-04-08T23:50:58.437Z,67.61
2023-04-08T23:53:24.797Z,68.23
2023-04-08T23:55:51.408Z,68.72
2023-04-08T23:58:17.794Z,68.51
